sensor_id;sensor_type;location;lat;lon;timestamp;P1;durP1;ratioP1;P2;durP2;ratioP2
27161;SDS011;54464;50.558;9.704;2024-02-21T00:02:10;11.53;;;4.13;;
27161;SDS011;54464;50.558;9.704;2024-02-21T00:04:36;13.13;;;4.90;;
27161;SDS011;54464;50.558;9.704;2024-02-21T00:07:03;13.63;;;4.87;;
27161;SDS011;54464;50.558;9.704;2024-02-21T00:09:29;13.13;;;5.13;;
27161;SDS011;54464;50.558;9.704;2024-02-21T00:11:54;17.53;;;5.67;;
27161;SDS011;54464;50.558;9.704;2024-02-21T00:14:20;10.30;;;4.90;;
27161;SDS011;54464;50.558;9.704;2024-02-21T00:16:46;13.03;;;5.93;;
27161;SDS011;54464;50.558;9.704;2024-02-21T00:19:12;11.73;;;5.60;;
27161;SDS011;54464;50.558;9.704;2024-02-21T00:21:39;10.63;;;5.37;;
27161;SDS011;54464;50.558;9.704;2024-02-21T00:24:05;15.47;;;5.50;;
27161;SDS011;54464;50.558;9.704;2024-02-21T00:26:31;10.70;;;4.97;;
27161;SDS011;54464;50.558;9.704;2024-02-21T00:28:56;9.73;;;4.70;;
27161;SDS011;54464;50.558;9.704;2024-02-21T00:31:22;8.67;;;4.20;;
27161;SDS011;54464;50.558;9.704;2024-02-21T00:33:47;9.97;;;4.40;;
27161;SDS011;54464;50.558;9.704;2024-02-21T00:36:13;12.00;;;4.00;;
27161;SDS011;54464;50.558;9.704;2024-02-21T00:38:39;13.43;;;4.80;;
27161;SDS011;54464;50.558;9.704;2024-02-21T00:41:05;12.60;;;5.17;;
27161;SDS011;54464;50.558;9.704;2024-02-21T00:43:30;13.10;;;5.43;;
27161;SDS011;54464;50.558;9.704;2024-02-21T00:45:56;12.27;;;5.30;;
27161;SDS011;54464;50.558;9.704;2024-02-21T00:48:22;12.53;;;5.00;;
27161;SDS011;54464;50.558;9.704;2024-02-21T00:50:47;12.97;;;4.67;;
27161;SDS011;54464;50.558;9.704;2024-02-21T00:53:13;13.93;;;4.67;;
27161;SDS011;54464;50.558;9.704;2024-02-21T00:55:38;13.83;;;3.90;;
27161;SDS011;54464;50.558;9.704;2024-02-21T00:58:05;8.70;;;4.07;;
27161;SDS011;54464;50.558;9.704;2024-02-21T01:00:30;14.13;;;4.60;;
27161;SDS011;54464;50.558;9.704;2024-02-21T01:02:57;8.93;;;4.40;;
27161;SDS011;54464;50.558;9.704;2024-02-21T01:05:22;10.87;;;4.37;;
27161;SDS011;54464;50.558;9.704;2024-02-21T01:07:52;9.77;;;4.33;;
27161;SDS011;54464;50.558;9.704;2024-02-21T01:10:17;13.17;;;4.87;;
27161;SDS011;54464;50.558;9.704;2024-02-21T01:12:43;12.77;;;4.90;;
27161;SDS011;54464;50.558;9.704;2024-02-21T01:15:09;9.53;;;4.60;;
27161;SDS011;54464;50.558;9.704;2024-02-21T01:17:35;8.67;;;3.93;;
27161;SDS011;54464;50.558;9.704;2024-02-21T01:20:01;9.53;;;4.30;;
27161;SDS011;54464;50.558;9.704;2024-02-21T01:22:26;9.67;;;4.67;;
27161;SDS011;54464;50.558;9.704;2024-02-21T01:24:52;9.07;;;4.23;;
27161;SDS011;54464;50.558;9.704;2024-02-21T01:27:17;12.87;;;4.77;;
27161;SDS011;54464;50.558;9.704;2024-02-21T01:29:43;10.40;;;4.40;;
27161;SDS011;54464;50.558;9.704;2024-02-21T01:32:09;15.67;;;6.00;;
27161;SDS011;54464;50.558;9.704;2024-02-21T01:34:34;12.20;;;5.70;;
27161;SDS011;54464;50.558;9.704;2024-02-21T01:37:00;13.70;;;5.03;;
27161;SDS011;54464;50.558;9.704;2024-02-21T01:39:29;10.37;;;4.77;;
27161;SDS011;54464;50.558;9.704;2024-02-21T01:41:55;11.10;;;5.33;;
27161;SDS011;54464;50.558;9.704;2024-02-21T01:44:20;12.47;;;4.70;;
27161;SDS011;54464;50.558;9.704;2024-02-21T01:46:46;10.10;;;4.53;;
27161;SDS011;54464;50.558;9.704;2024-02-21T01:49:12;13.23;;;4.87;;
27161;SDS011;54464;50.558;9.704;2024-02-21T01:51:37;12.57;;;4.50;;
27161;SDS011;54464;50.558;9.704;2024-02-21T01:54:04;10.93;;;4.00;;
27161;SDS011;54464;50.558;9.704;2024-02-21T01:56:30;9.57;;;4.60;;
27161;SDS011;54464;50.558;9.704;2024-02-21T01:58:56;11.17;;;4.50;;
27161;SDS011;54464;50.558;9.704;2024-02-21T02:01:21;12.70;;;4.53;;
27161;SDS011;54464;50.558;9.704;2024-02-21T02:03:47;14.60;;;5.00;;
27161;SDS011;54464;50.558;9.704;2024-02-21T02:06:13;12.67;;;4.27;;
27161;SDS011;54464;50.558;9.704;2024-02-21T02:08:39;10.70;;;4.60;;
27161;SDS011;54464;50.558;9.704;2024-02-21T02:11:05;11.60;;;4.40;;
27161;SDS011;54464;50.558;9.704;2024-02-21T02:13:31;11.97;;;4.90;;
27161;SDS011;54464;50.558;9.704;2024-02-21T02:15:57;11.83;;;4.80;;
27161;SDS011;54464;50.558;9.704;2024-02-21T02:18:23;13.20;;;4.90;;
27161;SDS011;54464;50.558;9.704;2024-02-21T02:20:49;9.40;;;4.57;;
27161;SDS011;54464;50.558;9.704;2024-02-21T02:23:30;14.47;;;5.03;;
27161;SDS011;54464;50.558;9.704;2024-02-21T02:25:59;14.47;;;4.90;;
27161;SDS011;54464;50.558;9.704;2024-02-21T02:28:25;11.00;;;4.63;;
27161;SDS011;54464;50.558;9.704;2024-02-21T02:30:51;9.80;;;4.27;;
27161;SDS011;54464;50.558;9.704;2024-02-21T02:33:17;12.03;;;4.47;;
27161;SDS011;54464;50.558;9.704;2024-02-21T02:35:43;11.70;;;4.90;;
27161;SDS011;54464;50.558;9.704;2024-02-21T02:38:09;11.80;;;4.60;;
27161;SDS011;54464;50.558;9.704;2024-02-21T02:40:37;10.17;;;4.93;;
27161;SDS011;54464;50.558;9.704;2024-02-21T02:43:03;13.57;;;5.33;;
27161;SDS011;54464;50.558;9.704;2024-02-21T02:45:29;12.17;;;5.10;;
27161;SDS011;54464;50.558;9.704;2024-02-21T02:47:55;9.40;;;4.90;;
27161;SDS011;54464;50.558;9.704;2024-02-21T02:50:22;13.17;;;5.50;;
27161;SDS011;54464;50.558;9.704;2024-02-21T02:52:51;12.50;;;5.23;;
27161;SDS011;54464;50.558;9.704;2024-02-21T02:55:17;15.03;;;5.70;;
27161;SDS011;54464;50.558;9.704;2024-02-21T02:57:42;12.50;;;4.97;;
27161;SDS011;54464;50.558;9.704;2024-02-21T03:00:08;12.93;;;6.53;;
27161;SDS011;54464;50.558;9.704;2024-02-21T03:02:35;14.10;;;5.63;;
27161;SDS011;54464;50.558;9.704;2024-02-21T03:05:03;11.73;;;5.90;;
27161;SDS011;54464;50.558;9.704;2024-02-21T03:07:40;14.90;;;6.20;;
27161;SDS011;54464;50.558;9.704;2024-02-21T03:10:09;15.13;;;5.63;;
27161;SDS011;54464;50.558;9.704;2024-02-21T03:12:35;14.37;;;5.73;;
27161;SDS011;54464;50.558;9.704;2024-02-21T03:15:01;12.27;;;6.20;;
27161;SDS011;54464;50.558;9.704;2024-02-21T03:17:26;16.10;;;6.53;;
27161;SDS011;54464;50.558;9.704;2024-02-21T03:19:53;11.60;;;5.97;;
27161;SDS011;54464;50.558;9.704;2024-02-21T03:22:20;15.97;;;6.30;;
27161;SDS011;54464;50.558;9.704;2024-02-21T03:24:46;13.27;;;6.53;;
27161;SDS011;54464;50.558;9.704;2024-02-21T03:27:11;11.43;;;6.43;;
27161;SDS011;54464;50.558;9.704;2024-02-21T03:29:37;14.20;;;6.20;;
27161;SDS011;54464;50.558;9.704;2024-02-21T03:32:03;13.77;;;6.83;;
27161;SDS011;54464;50.558;9.704;2024-02-21T03:34:28;15.77;;;7.40;;
27161;SDS011;54464;50.558;9.704;2024-02-21T03:36:54;14.50;;;7.60;;
27161;SDS011;54464;50.558;9.704;2024-02-21T03:39:20;11.63;;;7.27;;
27161;SDS011;54464;50.558;9.704;2024-02-21T03:41:46;15.57;;;8.47;;
27161;SDS011;54464;50.558;9.704;2024-02-21T03:44:12;14.90;;;8.23;;
27161;SDS011;54464;50.558;9.704;2024-02-21T03:46:41;15.07;;;8.03;;
27161;SDS011;54464;50.558;9.704;2024-02-21T03:49:06;19.10;;;8.60;;
27161;SDS011;54464;50.558;9.704;2024-02-21T03:51:32;16.77;;;8.67;;
27161;SDS011;54464;50.558;9.704;2024-02-21T03:53:57;15.37;;;7.97;;
27161;SDS011;54464;50.558;9.704;2024-02-21T03:56:23;14.67;;;7.77;;
27161;SDS011;54464;50.558;9.704;2024-02-21T03:58:48;17.23;;;8.73;;
27161;SDS011;54464;50.558;9.704;2024-02-21T04:01:15;18.10;;;8.30;;
27161;SDS011;54464;50.558;9.704;2024-02-21T04:03:41;21.17;;;9.43;;
27161;SDS011;54464;50.558;9.704;2024-02-21T04:06:08;15.03;;;8.33;;
27161;SDS011;54464;50.558;9.704;2024-02-21T04:08:34;13.93;;;7.57;;
27161;SDS011;54464;50.558;9.704;2024-02-21T04:11:00;16.13;;;7.63;;
27161;SDS011;54464;50.558;9.704;2024-02-21T04:13:26;13.33;;;7.47;;
27161;SDS011;54464;50.558;9.704;2024-02-21T04:15:51;14.30;;;8.07;;
27161;SDS011;54464;50.558;9.704;2024-02-21T04:18:17;18.10;;;8.30;;
27161;SDS011;54464;50.558;9.704;2024-02-21T04:20:43;15.57;;;8.43;;
27161;SDS011;54464;50.558;9.704;2024-02-21T04:23:08;16.53;;;8.67;;
27161;SDS011;54464;50.558;9.704;2024-02-21T04:25:34;15.57;;;8.37;;
27161;SDS011;54464;50.558;9.704;2024-02-21T04:27:59;17.47;;;8.60;;
27161;SDS011;54464;50.558;9.704;2024-02-21T04:30:25;17.47;;;9.47;;
27161;SDS011;54464;50.558;9.704;2024-02-21T04:32:51;18.53;;;9.67;;
27161;SDS011;54464;50.558;9.704;2024-02-21T04:35:16;18.47;;;9.23;;
27161;SDS011;54464;50.558;9.704;2024-02-21T04:37:42;19.27;;;9.77;;
27161;SDS011;54464;50.558;9.704;2024-02-21T04:40:08;17.97;;;9.57;;
27161;SDS011;54464;50.558;9.704;2024-02-21T04:42:35;21.77;;;10.63;;
27161;SDS011;54464;50.558;9.704;2024-02-21T04:45:00;15.70;;;9.23;;
27161;SDS011;54464;50.558;9.704;2024-02-21T04:47:26;18.13;;;8.90;;
27161;SDS011;54464;50.558;9.704;2024-02-21T04:49:52;18.33;;;8.57;;
27161;SDS011;54464;50.558;9.704;2024-02-21T04:52:17;16.67;;;9.07;;
27161;SDS011;54464;50.558;9.704;2024-02-21T04:54:43;17.73;;;8.60;;
27161;SDS011;54464;50.558;9.704;2024-02-21T04:57:09;17.33;;;8.73;;
27161;SDS011;54464;50.558;9.704;2024-02-21T04:59:36;15.87;;;8.37;;
27161;SDS011;54464;50.558;9.704;2024-02-21T05:02:02;12.47;;;7.80;;
27161;SDS011;54464;50.558;9.704;2024-02-21T05:04:28;14.73;;;7.67;;
27161;SDS011;54464;50.558;9.704;2024-02-21T05:06:53;14.17;;;7.47;;
27161;SDS011;54464;50.558;9.704;2024-02-21T05:09:19;12.37;;;7.60;;
27161;SDS011;54464;50.558;9.704;2024-02-21T05:11:45;13.80;;;7.70;;
27161;SDS011;54464;50.558;9.704;2024-02-21T05:14:11;15.27;;;7.30;;
27161;SDS011;54464;50.558;9.704;2024-02-21T05:16:36;15.23;;;7.53;;
27161;SDS011;54464;50.558;9.704;2024-02-21T05:19:04;15.43;;;7.80;;
27161;SDS011;54464;50.558;9.704;2024-02-21T05:21:29;13.30;;;7.77;;
27161;SDS011;54464;50.558;9.704;2024-02-21T05:23:55;11.80;;;7.60;;
27161;SDS011;54464;50.558;9.704;2024-02-21T05:26:21;15.53;;;7.23;;
27161;SDS011;54464;50.558;9.704;2024-02-21T05:28:50;18.90;;;8.50;;
27161;SDS011;54464;50.558;9.704;2024-02-21T05:31:18;13.50;;;8.03;;
27161;SDS011;54464;50.558;9.704;2024-02-21T05:33:44;15.30;;;7.93;;
27161;SDS011;54464;50.558;9.704;2024-02-21T05:36:10;15.50;;;7.27;;
27161;SDS011;54464;50.558;9.704;2024-02-21T05:38:37;14.47;;;7.73;;
27161;SDS011;54464;50.558;9.704;2024-02-21T05:41:03;13.07;;;6.87;;
27161;SDS011;54464;50.558;9.704;2024-02-21T05:43:29;15.03;;;7.00;;
27161;SDS011;54464;50.558;9.704;2024-02-21T05:45:54;11.70;;;7.07;;
27161;SDS011;54464;50.558;9.704;2024-02-21T05:48:21;15.13;;;7.07;;
27161;SDS011;54464;50.558;9.704;2024-02-21T05:50:47;12.57;;;7.77;;
27161;SDS011;54464;50.558;9.704;2024-02-21T05:53:12;14.30;;;7.77;;
27161;SDS011;54464;50.558;9.704;2024-02-21T05:55:38;15.23;;;6.97;;
27161;SDS011;54464;50.558;9.704;2024-02-21T05:58:04;13.87;;;7.20;;
27161;SDS011;54464;50.558;9.704;2024-02-21T06:00:30;15.17;;;7.27;;
27161;SDS011;54464;50.558;9.704;2024-02-21T06:02:57;13.53;;;7.47;;
27161;SDS011;54464;50.558;9.704;2024-02-21T06:05:22;16.70;;;7.27;;
27161;SDS011;54464;50.558;9.704;2024-02-21T06:07:48;16.37;;;8.17;;
27161;SDS011;54464;50.558;9.704;2024-02-21T06:10:13;12.73;;;6.57;;
27161;SDS011;54464;50.558;9.704;2024-02-21T06:12:39;10.87;;;6.80;;
27161;SDS011;54464;50.558;9.704;2024-02-21T06:15:05;15.07;;;7.30;;
27161;SDS011;54464;50.558;9.704;2024-02-21T06:17:31;14.30;;;7.77;;
27161;SDS011;54464;50.558;9.704;2024-02-21T06:19:56;15.50;;;7.97;;
27161;SDS011;54464;50.558;9.704;2024-02-21T06:22:22;14.43;;;6.97;;
27161;SDS011;54464;50.558;9.704;2024-02-21T06:24:48;15.30;;;7.23;;
27161;SDS011;54464;50.558;9.704;2024-02-21T06:27:13;15.87;;;7.53;;
27161;SDS011;54464;50.558;9.704;2024-02-21T06:29:41;13.10;;;7.03;;
27161;SDS011;54464;50.558;9.704;2024-02-21T06:32:07;14.53;;;7.13;;
27161;SDS011;54464;50.558;9.704;2024-02-21T06:34:32;14.30;;;6.87;;
27161;SDS011;54464;50.558;9.704;2024-02-21T06:36:58;12.13;;;6.60;;
27161;SDS011;54464;50.558;9.704;2024-02-21T06:39:23;15.53;;;7.53;;
27161;SDS011;54464;50.558;9.704;2024-02-21T06:41:49;13.37;;;7.33;;
27161;SDS011;54464;50.558;9.704;2024-02-21T06:44:16;14.60;;;7.43;;
27161;SDS011;54464;50.558;9.704;2024-02-21T06:46:42;13.20;;;7.83;;
27161;SDS011;54464;50.558;9.704;2024-02-21T06:49:08;15.50;;;7.37;;
27161;SDS011;54464;50.558;9.704;2024-02-21T06:51:34;12.93;;;7.70;;
27161;SDS011;54464;50.558;9.704;2024-02-21T06:54:00;15.77;;;8.03;;
27161;SDS011;54464;50.558;9.704;2024-02-21T06:56:25;20.67;;;8.43;;
27161;SDS011;54464;50.558;9.704;2024-02-21T06:58:57;16.03;;;7.90;;
27161;SDS011;54464;50.558;9.704;2024-02-21T07:01:23;15.63;;;8.17;;
27161;SDS011;54464;50.558;9.704;2024-02-21T07:03:52;14.10;;;9.57;;
27161;SDS011;54464;50.558;9.704;2024-02-21T07:06:18;15.13;;;7.70;;
27161;SDS011;54464;50.558;9.704;2024-02-21T07:08:44;15.37;;;9.33;;
27161;SDS011;54464;50.558;9.704;2024-02-21T07:11:09;16.07;;;8.13;;
27161;SDS011;54464;50.558;9.704;2024-02-21T07:13:36;14.50;;;8.47;;
27161;SDS011;54464;50.558;9.704;2024-02-21T07:16:01;13.83;;;8.30;;
27161;SDS011;54464;50.558;9.704;2024-02-21T07:18:27;15.60;;;8.53;;
27161;SDS011;54464;50.558;9.704;2024-02-21T07:20:52;14.77;;;8.60;;
27161;SDS011;54464;50.558;9.704;2024-02-21T07:23:18;17.87;;;8.60;;
27161;SDS011;54464;50.558;9.704;2024-02-21T07:25:44;16.53;;;8.70;;
27161;SDS011;54464;50.558;9.704;2024-02-21T07:28:09;14.43;;;8.57;;
27161;SDS011;54464;50.558;9.704;2024-02-21T07:30:35;16.27;;;9.60;;
27161;SDS011;54464;50.558;9.704;2024-02-21T07:33:01;13.57;;;8.83;;
27161;SDS011;54464;50.558;9.704;2024-02-21T07:35:27;17.17;;;9.17;;
27161;SDS011;54464;50.558;9.704;2024-02-21T07:37:53;14.90;;;8.13;;
27161;SDS011;54464;50.558;9.704;2024-02-21T07:40:18;16.20;;;8.37;;
27161;SDS011;54464;50.558;9.704;2024-02-21T07:42:44;17.50;;;8.70;;
27161;SDS011;54464;50.558;9.704;2024-02-21T07:45:10;13.07;;;7.60;;
27161;SDS011;54464;50.558;9.704;2024-02-21T07:47:36;17.23;;;8.20;;
27161;SDS011;54464;50.558;9.704;2024-02-21T07:50:02;14.10;;;8.00;;
27161;SDS011;54464;50.558;9.704;2024-02-21T07:52:28;17.03;;;8.07;;
27161;SDS011;54464;50.558;9.704;2024-02-21T07:54:54;9.70;;;6.87;;
27161;SDS011;54464;50.558;9.704;2024-02-21T07:57:20;12.87;;;7.30;;
27161;SDS011;54464;50.558;9.704;2024-02-21T07:59:45;15.70;;;7.97;;
27161;SDS011;54464;50.558;9.704;2024-02-21T08:02:13;14.80;;;7.33;;
27161;SDS011;54464;50.558;9.704;2024-02-21T08:04:42;13.00;;;6.93;;
27161;SDS011;54464;50.558;9.704;2024-02-21T08:07:07;12.57;;;6.83;;
27161;SDS011;54464;50.558;9.704;2024-02-21T08:09:35;13.17;;;6.87;;
27161;SDS011;54464;50.558;9.704;2024-02-21T08:12:02;13.03;;;6.80;;
27161;SDS011;54464;50.558;9.704;2024-02-21T08:14:29;13.53;;;7.03;;
27161;SDS011;54464;50.558;9.704;2024-02-21T08:16:54;13.57;;;7.57;;
27161;SDS011;54464;50.558;9.704;2024-02-21T08:19:20;18.43;;;7.00;;
27161;SDS011;54464;50.558;9.704;2024-02-21T08:21:47;10.83;;;6.00;;
27161;SDS011;54464;50.558;9.704;2024-02-21T08:24:16;9.27;;;5.90;;
27161;SDS011;54464;50.558;9.704;2024-02-21T08:26:42;13.67;;;6.67;;
27161;SDS011;54464;50.558;9.704;2024-02-21T08:29:09;10.53;;;6.23;;
27161;SDS011;54464;50.558;9.704;2024-02-21T08:31:35;10.43;;;5.20;;
27161;SDS011;54464;50.558;9.704;2024-02-21T08:34:01;10.57;;;5.87;;
27161;SDS011;54464;50.558;9.704;2024-02-21T08:36:29;12.50;;;5.57;;
27161;SDS011;54464;50.558;9.704;2024-02-21T08:38:56;8.97;;;5.50;;
27161;SDS011;54464;50.558;9.704;2024-02-21T08:41:23;13.13;;;5.90;;
27161;SDS011;54464;50.558;9.704;2024-02-21T08:43:50;9.73;;;4.73;;
27161;SDS011;54464;50.558;9.704;2024-02-21T08:46:22;6.47;;;4.70;;
27161;SDS011;54464;50.558;9.704;2024-02-21T08:48:49;11.73;;;5.83;;
27161;SDS011;54464;50.558;9.704;2024-02-21T08:51:16;9.00;;;5.10;;
27161;SDS011;54464;50.558;9.704;2024-02-21T08:53:42;11.53;;;4.77;;
27161;SDS011;54464;50.558;9.704;2024-02-21T08:56:08;7.20;;;5.13;;
27161;SDS011;54464;50.558;9.704;2024-02-21T08:58:34;10.10;;;5.13;;
27161;SDS011;54464;50.558;9.704;2024-02-21T09:01:02;11.13;;;5.40;;
27161;SDS011;54464;50.558;9.704;2024-02-21T09:03:28;6.83;;;5.10;;
27161;SDS011;54464;50.558;9.704;2024-02-21T09:05:56;12.07;;;6.17;;
27161;SDS011;54464;50.558;9.704;2024-02-21T09:08:22;7.60;;;4.87;;
27161;SDS011;54464;50.558;9.704;2024-02-21T09:10:49;12.77;;;5.63;;
27161;SDS011;54464;50.558;9.704;2024-02-21T09:13:14;9.23;;;5.93;;
27161;SDS011;54464;50.558;9.704;2024-02-21T09:15:40;10.17;;;5.23;;
27161;SDS011;54464;50.558;9.704;2024-02-21T09:18:06;10.70;;;5.83;;
27161;SDS011;54464;50.558;9.704;2024-02-21T09:20:31;11.70;;;6.37;;
27161;SDS011;54464;50.558;9.704;2024-02-21T09:22:57;11.27;;;6.03;;
27161;SDS011;54464;50.558;9.704;2024-02-21T09:25:22;12.47;;;5.70;;
27161;SDS011;54464;50.558;9.704;2024-02-21T09:27:48;12.60;;;6.20;;
27161;SDS011;54464;50.558;9.704;2024-02-21T09:30:13;10.03;;;4.83;;
27161;SDS011;54464;50.558;9.704;2024-02-21T09:32:39;12.93;;;6.17;;
27161;SDS011;54464;50.558;9.704;2024-02-21T09:35:05;9.43;;;5.93;;
27161;SDS011;54464;50.558;9.704;2024-02-21T09:37:31;11.40;;;5.23;;
27161;SDS011;54464;50.558;9.704;2024-02-21T09:39:56;11.03;;;6.07;;
27161;SDS011;54464;50.558;9.704;2024-02-21T09:42:22;10.10;;;5.87;;
27161;SDS011;54464;50.558;9.704;2024-02-21T09:44:55;9.60;;;5.40;;
27161;SDS011;54464;50.558;9.704;2024-02-21T09:47:22;11.10;;;6.20;;
27161;SDS011;54464;50.558;9.704;2024-02-21T09:49:51;9.20;;;5.70;;
27161;SDS011;54464;50.558;9.704;2024-02-21T09:52:17;9.30;;;5.30;;
27161;SDS011;54464;50.558;9.704;2024-02-21T09:54:45;10.47;;;5.47;;
27161;SDS011;54464;50.558;9.704;2024-02-21T09:57:13;10.53;;;4.13;;
27161;SDS011;54464;50.558;9.704;2024-02-21T09:59:40;9.50;;;4.83;;
27161;SDS011;54464;50.558;9.704;2024-02-21T10:02:08;9.30;;;4.63;;
27161;SDS011;54464;50.558;9.704;2024-02-21T10:04:34;8.77;;;3.97;;
27161;SDS011;54464;50.558;9.704;2024-02-21T10:07:00;8.07;;;4.73;;
27161;SDS011;54464;50.558;9.704;2024-02-21T10:09:26;5.07;;;3.47;;
27161;SDS011;54464;50.558;9.704;2024-02-21T10:11:53;9.47;;;4.57;;
27161;SDS011;54464;50.558;9.704;2024-02-21T10:14:19;8.20;;;4.67;;
27161;SDS011;54464;50.558;9.704;2024-02-21T10:16:49;9.13;;;4.40;;
27161;SDS011;54464;50.558;9.704;2024-02-21T10:19:23;6.90;;;3.70;;
27161;SDS011;54464;50.558;9.704;2024-02-21T10:22:02;8.53;;;3.90;;
27161;SDS011;54464;50.558;9.704;2024-02-21T10:24:35;8.77;;;3.70;;
27161;SDS011;54464;50.558;9.704;2024-02-21T10:27:03;6.20;;;3.93;;
27161;SDS011;54464;50.558;9.704;2024-02-21T10:29:38;6.17;;;3.57;;
27161;SDS011;54464;50.558;9.704;2024-02-21T10:32:08;7.73;;;4.00;;
27161;SDS011;54464;50.558;9.704;2024-02-21T10:34:39;6.30;;;3.67;;
27161;SDS011;54464;50.558;9.704;2024-02-21T10:37:06;8.30;;;3.43;;
27161;SDS011;54464;50.558;9.704;2024-02-21T10:39:38;7.67;;;3.53;;
27161;SDS011;54464;50.558;9.704;2024-02-21T10:42:05;6.33;;;3.30;;
27161;SDS011;54464;50.558;9.704;2024-02-21T10:44:32;7.77;;;3.87;;
27161;SDS011;54464;50.558;9.704;2024-02-21T10:47:01;9.20;;;3.40;;
27161;SDS011;54464;50.558;9.704;2024-02-21T10:49:32;8.03;;;3.60;;
27161;SDS011;54464;50.558;9.704;2024-02-21T10:52:19;8.73;;;3.53;;
27161;SDS011;54464;50.558;9.704;2024-02-21T10:57:17;7.27;;;3.50;;
27161;SDS011;54464;50.558;9.704;2024-02-21T10:59:46;7.37;;;4.50;;
27161;SDS011;54464;50.558;9.704;2024-02-21T11:02:13;8.97;;;4.03;;
27161;SDS011;54464;50.558;9.704;2024-02-21T11:04:39;8.37;;;3.70;;
27161;SDS011;54464;50.558;9.704;2024-02-21T11:07:05;16.60;;;6.90;;
27161;SDS011;54464;50.558;9.704;2024-02-21T11:09:32;7.77;;;4.00;;
27161;SDS011;54464;50.558;9.704;2024-02-21T11:12:01;12.20;;;6.17;;
27161;SDS011;54464;50.558;9.704;2024-02-21T11:14:28;9.00;;;3.90;;
27161;SDS011;54464;50.558;9.704;2024-02-21T11:16:57;6.87;;;3.93;;
27161;SDS011;54464;50.558;9.704;2024-02-21T11:19:27;7.57;;;4.20;;
27161;SDS011;54464;50.558;9.704;2024-02-21T11:21:54;7.00;;;3.80;;
27161;SDS011;54464;50.558;9.704;2024-02-21T11:24:25;8.70;;;3.57;;
27161;SDS011;54464;50.558;9.704;2024-02-21T11:26:51;7.07;;;3.97;;
27161;SDS011;54464;50.558;9.704;2024-02-21T11:29:22;7.70;;;4.27;;
27161;SDS011;54464;50.558;9.704;2024-02-21T11:31:51;8.60;;;4.30;;
27161;SDS011;54464;50.558;9.704;2024-02-21T11:34:17;6.87;;;3.80;;
27161;SDS011;54464;50.558;9.704;2024-02-21T11:36:50;6.33;;;3.63;;
27161;SDS011;54464;50.558;9.704;2024-02-21T11:39:18;8.33;;;4.00;;
27161;SDS011;54464;50.558;9.704;2024-02-21T11:41:59;7.70;;;3.80;;
27161;SDS011;54464;50.558;9.704;2024-02-21T11:44:29;7.70;;;3.80;;
27161;SDS011;54464;50.558;9.704;2024-02-21T11:46:55;5.07;;;3.20;;
27161;SDS011;54464;50.558;9.704;2024-02-21T11:49:30;7.47;;;3.60;;
27161;SDS011;54464;50.558;9.704;2024-02-21T11:51:59;5.80;;;3.23;;
27161;SDS011;54464;50.558;9.704;2024-02-21T11:54:32;7.50;;;3.30;;
27161;SDS011;54464;50.558;9.704;2024-02-21T11:57:00;5.87;;;3.27;;
27161;SDS011;54464;50.558;9.704;2024-02-21T11:59:26;5.33;;;3.20;;
27161;SDS011;54464;50.558;9.704;2024-02-21T12:01:54;7.07;;;2.83;;
27161;SDS011;54464;50.558;9.704;2024-02-21T12:04:21;9.60;;;3.10;;
27161;SDS011;54464;50.558;9.704;2024-02-21T12:06:48;6.27;;;2.90;;
27161;SDS011;54464;50.558;9.704;2024-02-21T12:09:15;7.30;;;3.07;;
27161;SDS011;54464;50.558;9.704;2024-02-21T12:11:41;7.17;;;2.90;;
27161;SDS011;54464;50.558;9.704;2024-02-21T12:14:07;5.43;;;2.57;;
27161;SDS011;54464;50.558;9.704;2024-02-21T12:16:34;6.60;;;3.07;;
27161;SDS011;54464;50.558;9.704;2024-02-21T12:19:03;7.00;;;2.60;;
27161;SDS011;54464;50.558;9.704;2024-02-21T12:21:30;5.07;;;2.47;;
27161;SDS011;54464;50.558;9.704;2024-02-21T12:23:57;6.23;;;3.13;;
27161;SDS011;54464;50.558;9.704;2024-02-21T12:26:23;9.30;;;2.83;;
27161;SDS011;54464;50.558;9.704;2024-02-21T12:28:49;6.37;;;2.73;;
27161;SDS011;54464;50.558;9.704;2024-02-21T12:31:15;5.90;;;2.50;;
27161;SDS011;54464;50.558;9.704;2024-02-21T12:33:41;6.37;;;2.80;;
27161;SDS011;54464;50.558;9.704;2024-02-21T12:36:07;6.73;;;2.90;;
27161;SDS011;54464;50.558;9.704;2024-02-21T12:38:33;3.87;;;2.30;;
27161;SDS011;54464;50.558;9.704;2024-02-21T12:41:02;5.17;;;2.50;;
27161;SDS011;54464;50.558;9.704;2024-02-21T12:43:28;6.87;;;2.90;;
27161;SDS011;54464;50.558;9.704;2024-02-21T12:45:54;5.53;;;2.50;;
27161;SDS011;54464;50.558;9.704;2024-02-21T12:48:19;7.60;;;2.60;;
27161;SDS011;54464;50.558;9.704;2024-02-21T12:50:49;5.67;;;2.40;;
27161;SDS011;54464;50.558;9.704;2024-02-21T12:53:19;5.93;;;2.63;;
27161;SDS011;54464;50.558;9.704;2024-02-21T12:55:46;6.97;;;3.07;;
27161;SDS011;54464;50.558;9.704;2024-02-21T12:58:15;5.37;;;2.30;;
27161;SDS011;54464;50.558;9.704;2024-02-21T13:00:41;6.17;;;2.43;;
27161;SDS011;54464;50.558;9.704;2024-02-21T13:03:07;4.90;;;2.40;;
27161;SDS011;54464;50.558;9.704;2024-02-21T13:05:35;5.27;;;2.93;;
27161;SDS011;54464;50.558;9.704;2024-02-21T13:08:01;8.37;;;2.80;;
27161;SDS011;54464;50.558;9.704;2024-02-21T13:10:26;6.40;;;2.70;;
27161;SDS011;54464;50.558;9.704;2024-02-21T13:12:52;6.20;;;2.80;;
27161;SDS011;54464;50.558;9.704;2024-02-21T13:15:18;7.30;;;3.37;;
27161;SDS011;54464;50.558;9.704;2024-02-21T13:17:48;6.30;;;2.80;;
27161;SDS011;54464;50.558;9.704;2024-02-21T13:20:13;5.33;;;2.90;;
27161;SDS011;54464;50.558;9.704;2024-02-21T13:22:39;6.00;;;2.50;;
27161;SDS011;54464;50.558;9.704;2024-02-21T13:25:04;6.33;;;2.63;;
27161;SDS011;54464;50.558;9.704;2024-02-21T13:27:32;6.20;;;2.40;;
27161;SDS011;54464;50.558;9.704;2024-02-21T13:29:58;9.00;;;2.80;;
27161;SDS011;54464;50.558;9.704;2024-02-21T13:32:25;6.43;;;3.00;;
27161;SDS011;54464;50.558;9.704;2024-02-21T13:34:50;8.27;;;3.27;;
27161;SDS011;54464;50.558;9.704;2024-02-21T13:37:17;6.10;;;2.50;;
27161;SDS011;54464;50.558;9.704;2024-02-21T13:39:43;6.03;;;3.07;;
27161;SDS011;54464;50.558;9.704;2024-02-21T13:42:08;4.37;;;2.40;;
27161;SDS011;54464;50.558;9.704;2024-02-21T13:44:34;8.03;;;2.90;;
27161;SDS011;54464;50.558;9.704;2024-02-21T13:47:01;7.17;;;3.13;;
27161;SDS011;54464;50.558;9.704;2024-02-21T13:49:27;7.90;;;2.87;;
27161;SDS011;54464;50.558;9.704;2024-02-21T13:51:53;8.47;;;2.70;;
27161;SDS011;54464;50.558;9.704;2024-02-21T13:54:19;8.57;;;2.87;;
27161;SDS011;54464;50.558;9.704;2024-02-21T13:56:46;7.93;;;2.60;;
27161;SDS011;54464;50.558;9.704;2024-02-21T13:59:12;6.80;;;2.70;;
27161;SDS011;54464;50.558;9.704;2024-02-21T14:01:41;7.87;;;3.00;;
27161;SDS011;54464;50.558;9.704;2024-02-21T14:04:07;4.93;;;2.70;;
27161;SDS011;54464;50.558;9.704;2024-02-21T14:06:33;6.13;;;2.80;;
27161;SDS011;54464;50.558;9.704;2024-02-21T14:08:58;6.83;;;2.70;;
27161;SDS011;54464;50.558;9.704;2024-02-21T14:11:24;8.43;;;2.70;;
27161;SDS011;54464;50.558;9.704;2024-02-21T14:13:51;6.20;;;2.70;;
27161;SDS011;54464;50.558;9.704;2024-02-21T14:16:17;6.70;;;2.70;;
27161;SDS011;54464;50.558;9.704;2024-02-21T14:18:43;5.83;;;2.80;;
27161;SDS011;54464;50.558;9.704;2024-02-21T14:21:09;5.60;;;2.53;;
27161;SDS011;54464;50.558;9.704;2024-02-21T14:23:38;7.00;;;2.77;;
27161;SDS011;54464;50.558;9.704;2024-02-21T14:26:04;7.80;;;2.80;;
27161;SDS011;54464;50.558;9.704;2024-02-21T14:28:32;8.33;;;2.60;;
27161;SDS011;54464;50.558;9.704;2024-02-21T14:31:01;8.33;;;2.93;;
27161;SDS011;54464;50.558;9.704;2024-02-21T14:33:28;9.70;;;3.10;;
27161;SDS011;54464;50.558;9.704;2024-02-21T14:35:55;7.23;;;2.63;;
27161;SDS011;54464;50.558;9.704;2024-02-21T14:38:21;5.83;;;3.40;;
27161;SDS011;54464;50.558;9.704;2024-02-21T14:40:47;7.07;;;3.20;;